sensor_id;sensor_type;location;lat;lon;timestamp;P1;durP1;ratioP1;P2;durP2;ratioP2
56399;SDS011;42298;53.638;9.876;2023-06-14T00:00:14;10.98;;;3.53;;
56399;SDS011;42298;53.638;9.876;2023-06-14T00:02:40;9.23;;;3.28;;
56399;SDS011;42298;53.638;9.876;2023-06-14T00:05:06;9.73;;;3.88;;
56399;SDS011;42298;53.638;9.876;2023-06-14T00:07:36;8.40;;;3.25;;
56399;SDS011;42298;53.638;9.876;2023-06-14T00:10:03;7.82;;;3.47;;
56399;SDS011;42298;53.638;9.876;2023-06-14T00:12:29;9.60;;;3.80;;
56399;SDS011;42298;53.638;9.876;2023-06-14T00:14:55;11.05;;;3.60;;
56399;SDS011;42298;53.638;9.876;2023-06-14T00:17:20;11.20;;;4.20;;
56399;SDS011;42298;53.638;9.876;2023-06-14T00:19:46;9.23;;;4.13;;
56399;SDS011;42298;53.638;9.876;2023-06-14T00:22:12;7.65;;;3.78;;
56399;SDS011;42298;53.638;9.876;2023-06-14T00:24:37;7.57;;;3.60;;
56399;SDS011;42298;53.638;9.876;2023-06-14T00:27:02;7.80;;;3.88;;
56399;SDS011;42298;53.638;9.876;2023-06-14T00:29:28;10.30;;;3.40;;
56399;SDS011;42298;53.638;9.876;2023-06-14T00:31:53;6.75;;;3.10;;
56399;SDS011;42298;53.638;9.876;2023-06-14T00:34:18;8.25;;;3.63;;
56399;SDS011;42298;53.638;9.876;2023-06-14T00:36:44;9.23;;;3.72;;
56399;SDS011;42298;53.638;9.876;2023-06-14T00:39:09;8.00;;;3.85;;
56399;SDS011;42298;53.638;9.876;2023-06-14T00:41:34;9.80;;;3.90;;
56399;SDS011;42298;53.638;9.876;2023-06-14T00:44:00;7.63;;;3.50;;
56399;SDS011;42298;53.638;9.876;2023-06-14T00:46:26;7.88;;;3.35;;
56399;SDS011;42298;53.638;9.876;2023-06-14T00:48:51;8.13;;;3.40;;
56399;SDS011;42298;53.638;9.876;2023-06-14T00:51:17;6.68;;;3.60;;
56399;SDS011;42298;53.638;9.876;2023-06-14T00:53:42;7.45;;;3.58;;
56399;SDS011;42298;53.638;9.876;2023-06-14T00:56:11;8.57;;;3.42;;
56399;SDS011;42298;53.638;9.876;2023-06-14T00:58:38;6.78;;;3.55;;
56399;SDS011;42298;53.638;9.876;2023-06-14T01:01:04;7.65;;;3.63;;
56399;SDS011;42298;53.638;9.876;2023-06-14T01:03:29;7.78;;;3.45;;
56399;SDS011;42298;53.638;9.876;2023-06-14T01:06:13;10.10;;;4.28;;
56399;SDS011;42298;53.638;9.876;2023-06-14T01:11:32;8.27;;;3.70;;
56399;SDS011;42298;53.638;9.876;2023-06-14T01:14:02;8.75;;;4.15;;
56399;SDS011;42298;53.638;9.876;2023-06-14T01:16:28;7.30;;;3.63;;
56399;SDS011;42298;53.638;9.876;2023-06-14T01:18:56;7.28;;;3.53;;
56399;SDS011;42298;53.638;9.876;2023-06-14T01:21:23;9.32;;;3.75;;
56399;SDS011;42298;53.638;9.876;2023-06-14T01:23:49;9.05;;;3.63;;
56399;SDS011;42298;53.638;9.876;2023-06-14T01:26:21;6.75;;;3.40;;
56399;SDS011;42298;53.638;9.876;2023-06-14T01:28:47;9.02;;;3.97;;
56399;SDS011;42298;53.638;9.876;2023-06-14T01:31:16;7.60;;;3.33;;
56399;SDS011;42298;53.638;9.876;2023-06-14T01:33:44;7.57;;;3.65;;
56399;SDS011;42298;53.638;9.876;2023-06-14T01:36:11;7.63;;;4.10;;
56399;SDS011;42298;53.638;9.876;2023-06-14T01:38:37;8.48;;;3.80;;
56399;SDS011;42298;53.638;9.876;2023-06-14T01:41:04;7.05;;;3.60;;
56399;SDS011;42298;53.638;9.876;2023-06-14T01:43:30;8.90;;;4.15;;
56399;SDS011;42298;53.638;9.876;2023-06-14T01:45:57;7.63;;;3.72;;
56399;SDS011;42298;53.638;9.876;2023-06-14T01:48:27;10.60;;;4.30;;
56399;SDS011;42298;53.638;9.876;2023-06-14T01:50:52;9.00;;;3.55;;
56399;SDS011;42298;53.638;9.876;2023-06-14T01:53:18;7.50;;;3.65;;
56399;SDS011;42298;53.638;9.876;2023-06-14T01:55:43;9.40;;;4.28;;
56399;SDS011;42298;53.638;9.876;2023-06-14T01:58:10;8.00;;;4.07;;
56399;SDS011;42298;53.638;9.876;2023-06-14T02:00:36;9.13;;;3.80;;
56399;SDS011;42298;53.638;9.876;2023-06-14T02:03:01;9.70;;;4.03;;
56399;SDS011;42298;53.638;9.876;2023-06-14T02:05:29;9.30;;;4.15;;
56399;SDS011;42298;53.638;9.876;2023-06-14T02:07:55;10.30;;;3.72;;
56399;SDS011;42298;53.638;9.876;2023-06-14T02:10:21;8.55;;;3.70;;
56399;SDS011;42298;53.638;9.876;2023-06-14T02:12:47;8.73;;;3.78;;
56399;SDS011;42298;53.638;9.876;2023-06-14T02:15:12;8.27;;;4.07;;
56399;SDS011;42298;53.638;9.876;2023-06-14T02:17:43;10.38;;;4.20;;
56399;SDS011;42298;53.638;9.876;2023-06-14T02:20:09;8.57;;;3.85;;
56399;SDS011;42298;53.638;9.876;2023-06-14T02:22:34;7.25;;;3.80;;
56399;SDS011;42298;53.638;9.876;2023-06-14T02:25:00;7.32;;;3.85;;
56399;SDS011;42298;53.638;9.876;2023-06-14T02:27:25;9.52;;;4.50;;
56399;SDS011;42298;53.638;9.876;2023-06-14T02:29:50;9.23;;;4.30;;
56399;SDS011;42298;53.638;9.876;2023-06-14T02:32:16;10.95;;;4.43;;
56399;SDS011;42298;53.638;9.876;2023-06-14T02:34:41;6.57;;;3.47;;
56399;SDS011;42298;53.638;9.876;2023-06-14T02:37:06;8.13;;;3.80;;
56399;SDS011;42298;53.638;9.876;2023-06-14T02:39:32;9.48;;;3.90;;
56399;SDS011;42298;53.638;9.876;2023-06-14T02:41:57;8.55;;;4.03;;
56399;SDS011;42298;53.638;9.876;2023-06-14T02:44:26;7.28;;;4.47;;
56399;SDS011;42298;53.638;9.876;2023-06-14T02:46:55;7.00;;;4.07;;
56399;SDS011;42298;53.638;9.876;2023-06-14T02:49:24;7.15;;;3.50;;
56399;SDS011;42298;53.638;9.876;2023-06-14T02:51:51;11.18;;;4.20;;
56399;SDS011;42298;53.638;9.876;2023-06-14T02:54:16;10.90;;;4.28;;
56399;SDS011;42298;53.638;9.876;2023-06-14T02:56:41;7.95;;;3.95;;
56399;SDS011;42298;53.638;9.876;2023-06-14T02:59:07;8.20;;;4.57;;
56399;SDS011;42298;53.638;9.876;2023-06-14T03:01:34;9.50;;;4.45;;
56399;SDS011;42298;53.638;9.876;2023-06-14T03:04:02;10.40;;;4.40;;
56399;SDS011;42298;53.638;9.876;2023-06-14T03:06:28;8.27;;;3.42;;
56399;SDS011;42298;53.638;9.876;2023-06-14T03:08:58;8.68;;;4.20;;
56399;SDS011;42298;53.638;9.876;2023-06-14T03:11:25;7.80;;;3.63;;
56399;SDS011;42298;53.638;9.876;2023-06-14T03:13:51;8.43;;;4.32;;
56399;SDS011;42298;53.638;9.876;2023-06-14T03:16:17;9.35;;;4.15;;
56399;SDS011;42298;53.638;9.876;2023-06-14T03:18:44;9.07;;;3.83;;
56399;SDS011;42298;53.638;9.876;2023-06-14T03:21:10;9.80;;;4.60;;
56399;SDS011;42298;53.638;9.876;2023-06-14T03:23:36;9.65;;;3.97;;
56399;SDS011;42298;53.638;9.876;2023-06-14T03:26:01;9.80;;;4.07;;
56399;SDS011;42298;53.638;9.876;2023-06-14T03:28:27;9.63;;;4.25;;
56399;SDS011;42298;53.638;9.876;2023-06-14T03:30:52;8.18;;;4.28;;
56399;SDS011;42298;53.638;9.876;2023-06-14T03:33:17;8.48;;;4.15;;
56399;SDS011;42298;53.638;9.876;2023-06-14T03:35:43;8.10;;;3.90;;
56399;SDS011;42298;53.638;9.876;2023-06-14T03:38:09;10.48;;;4.10;;
56399;SDS011;42298;53.638;9.876;2023-06-14T03:40:34;8.63;;;3.83;;
56399;SDS011;42298;53.638;9.876;2023-06-14T03:42:59;9.57;;;4.20;;
56399;SDS011;42298;53.638;9.876;2023-06-14T03:45:25;7.60;;;3.95;;
56399;SDS011;42298;53.638;9.876;2023-06-14T03:47:50;8.73;;;4.10;;
56399;SDS011;42298;53.638;9.876;2023-06-14T03:50:16;7.85;;;3.65;;
56399;SDS011;42298;53.638;9.876;2023-06-14T03:52:43;7.18;;;3.67;;
56399;SDS011;42298;53.638;9.876;2023-06-14T03:55:08;9.05;;;4.95;;
56399;SDS011;42298;53.638;9.876;2023-06-14T03:57:34;10.20;;;5.03;;
56399;SDS011;42298;53.638;9.876;2023-06-14T04:00:00;10.80;;;4.93;;
56399;SDS011;42298;53.638;9.876;2023-06-14T04:02:25;12.00;;;5.55;;
56399;SDS011;42298;53.638;9.876;2023-06-14T04:04:51;11.32;;;5.40;;
56399;SDS011;42298;53.638;9.876;2023-06-14T04:07:19;11.48;;;4.90;;
56399;SDS011;42298;53.638;9.876;2023-06-14T04:09:45;8.90;;;4.20;;
56399;SDS011;42298;53.638;9.876;2023-06-14T04:12:11;10.23;;;4.38;;
56399;SDS011;42298;53.638;9.876;2023-06-14T04:14:36;12.93;;;5.07;;
56399;SDS011;42298;53.638;9.876;2023-06-14T04:17:02;11.05;;;4.57;;
56399;SDS011;42298;53.638;9.876;2023-06-14T04:19:27;10.10;;;4.78;;
56399;SDS011;42298;53.638;9.876;2023-06-14T04:21:53;11.23;;;4.78;;
56399;SDS011;42298;53.638;9.876;2023-06-14T04:24:18;14.27;;;5.47;;
56399;SDS011;42298;53.638;9.876;2023-06-14T04:26:44;11.32;;;4.43;;
56399;SDS011;42298;53.638;9.876;2023-06-14T04:29:10;10.18;;;4.47;;
56399;SDS011;42298;53.638;9.876;2023-06-14T04:31:39;9.63;;;4.45;;
56399;SDS011;42298;53.638;9.876;2023-06-14T04:34:09;10.43;;;4.70;;
56399;SDS011;42298;53.638;9.876;2023-06-14T04:36:40;8.45;;;3.80;;
56399;SDS011;42298;53.638;9.876;2023-06-14T04:39:17;11.48;;;4.25;;
56399;SDS011;42298;53.638;9.876;2023-06-14T04:41:43;8.75;;;4.18;;
56399;SDS011;42298;53.638;9.876;2023-06-14T04:44:09;12.70;;;3.97;;
56399;SDS011;42298;53.638;9.876;2023-06-14T04:46:35;9.68;;;4.65;;
56399;SDS011;42298;53.638;9.876;2023-06-14T04:49:09;10.23;;;4.10;;
56399;SDS011;42298;53.638;9.876;2023-06-14T04:51:35;9.57;;;3.97;;
56399;SDS011;42298;53.638;9.876;2023-06-14T04:54:01;7.85;;;3.33;;
56399;SDS011;42298;53.638;9.876;2023-06-14T04:56:28;11.35;;;4.28;;
56399;SDS011;42298;53.638;9.876;2023-06-14T04:58:55;9.68;;;3.80;;
56399;SDS011;42298;53.638;9.876;2023-06-14T05:01:21;12.00;;;4.03;;
56399;SDS011;42298;53.638;9.876;2023-06-14T05:03:48;8.68;;;3.90;;
56399;SDS011;42298;53.638;9.876;2023-06-14T05:06:14;8.75;;;3.83;;
56399;SDS011;42298;53.638;9.876;2023-06-14T05:08:42;11.32;;;4.43;;
56399;SDS011;42298;53.638;9.876;2023-06-14T05:11:07;10.65;;;4.20;;
56399;SDS011;42298;53.638;9.876;2023-06-14T05:13:33;11.43;;;3.97;;
56399;SDS011;42298;53.638;9.876;2023-06-14T05:15:59;13.13;;;4.07;;
56399;SDS011;42298;53.638;9.876;2023-06-14T05:18:25;9.30;;;4.07;;
56399;SDS011;42298;53.638;9.876;2023-06-14T05:20:50;7.88;;;3.90;;
56399;SDS011;42298;53.638;9.876;2023-06-14T05:23:16;11.20;;;4.28;;
56399;SDS011;42298;53.638;9.876;2023-06-14T05:25:45;12.10;;;4.10;;
56399;SDS011;42298;53.638;9.876;2023-06-14T05:28:11;6.20;;;3.45;;
56399;SDS011;42298;53.638;9.876;2023-06-14T05:30:40;8.25;;;3.55;;
56399;SDS011;42298;53.638;9.876;2023-06-14T05:33:05;9.38;;;3.85;;
56399;SDS011;42298;53.638;9.876;2023-06-14T05:35:31;8.05;;;3.60;;
56399;SDS011;42298;53.638;9.876;2023-06-14T05:37:56;8.73;;;4.07;;
56399;SDS011;42298;53.638;9.876;2023-06-14T05:40:21;9.65;;;3.47;;
56399;SDS011;42298;53.638;9.876;2023-06-14T05:42:47;9.52;;;4.03;;
56399;SDS011;42298;53.638;9.876;2023-06-14T05:45:12;10.98;;;4.22;;
56399;SDS011;42298;53.638;9.876;2023-06-14T05:47:37;8.30;;;3.67;;
56399;SDS011;42298;53.638;9.876;2023-06-14T05:50:03;8.13;;;3.25;;
56399;SDS011;42298;53.638;9.876;2023-06-14T05:52:28;7.88;;;3.72;;
56399;SDS011;42298;53.638;9.876;2023-06-14T05:54:54;8.80;;;3.75;;
56399;SDS011;42298;53.638;9.876;2023-06-14T05:57:20;10.00;;;4.07;;
56399;SDS011;42298;53.638;9.876;2023-06-14T05:59:45;8.18;;;3.72;;
56399;SDS011;42298;53.638;9.876;2023-06-14T06:02:11;12.55;;;3.70;;
56399;SDS011;42298;53.638;9.876;2023-06-14T06:04:36;11.15;;;3.88;;
56399;SDS011;42298;53.638;9.876;2023-06-14T06:07:01;10.20;;;4.15;;
56399;SDS011;42298;53.638;9.876;2023-06-14T06:09:29;8.95;;;3.55;;
56399;SDS011;42298;53.638;9.876;2023-06-14T06:14:54;8.35;;;3.83;;
56399;SDS011;42298;53.638;9.876;2023-06-14T06:17:20;8.88;;;3.65;;
56399;SDS011;42298;53.638;9.876;2023-06-14T06:19:45;10.85;;;3.80;;
56399;SDS011;42298;53.638;9.876;2023-06-14T06:22:11;7.45;;;3.42;;
56399;SDS011;42298;53.638;9.876;2023-06-14T06:24:36;11.05;;;3.60;;
56399;SDS011;42298;53.638;9.876;2023-06-14T06:27:02;7.13;;;3.20;;
56399;SDS011;42298;53.638;9.876;2023-06-14T06:29:28;8.23;;;3.40;;
56399;SDS011;42298;53.638;9.876;2023-06-14T06:31:53;7.53;;;3.20;;
56399;SDS011;42298;53.638;9.876;2023-06-14T06:34:18;7.68;;;2.90;;
56399;SDS011;42298;53.638;9.876;2023-06-14T06:36:44;11.73;;;3.70;;
56399;SDS011;42298;53.638;9.876;2023-06-14T06:39:09;6.57;;;2.72;;
56399;SDS011;42298;53.638;9.876;2023-06-14T06:41:35;6.80;;;2.95;;
56399;SDS011;42298;53.638;9.876;2023-06-14T06:44:04;7.05;;;2.83;;
56399;SDS011;42298;53.638;9.876;2023-06-14T06:46:30;8.30;;;2.85;;
56399;SDS011;42298;53.638;9.876;2023-06-14T06:48:55;6.85;;;3.10;;
56399;SDS011;42298;53.638;9.876;2023-06-14T06:51:20;8.20;;;3.33;;
56399;SDS011;42298;53.638;9.876;2023-06-14T06:53:51;7.30;;;3.17;;
56399;SDS011;42298;53.638;9.876;2023-06-14T06:56:18;6.40;;;2.80;;
56399;SDS011;42298;53.638;9.876;2023-06-14T06:58:44;6.35;;;3.20;;
56399;SDS011;42298;53.638;9.876;2023-06-14T07:01:09;6.35;;;3.38;;
56399;SDS011;42298;53.638;9.876;2023-06-14T07:03:36;6.32;;;2.90;;
56399;SDS011;42298;53.638;9.876;2023-06-14T07:06:02;6.55;;;2.88;;
56399;SDS011;42298;53.638;9.876;2023-06-14T07:08:28;8.15;;;3.10;;
56399;SDS011;42298;53.638;9.876;2023-06-14T07:10:53;8.43;;;3.10;;
56399;SDS011;42298;53.638;9.876;2023-06-14T07:13:18;7.78;;;2.97;;
56399;SDS011;42298;53.638;9.876;2023-06-14T07:15:44;8.50;;;3.17;;
56399;SDS011;42298;53.638;9.876;2023-06-14T07:18:09;8.05;;;3.30;;
56399;SDS011;42298;53.638;9.876;2023-06-14T07:20:35;6.70;;;3.25;;
56399;SDS011;42298;53.638;9.876;2023-06-14T07:23:03;5.82;;;2.83;;
56399;SDS011;42298;53.638;9.876;2023-06-14T07:25:28;7.00;;;3.40;;
56399;SDS011;42298;53.638;9.876;2023-06-14T07:27:54;5.10;;;2.88;;
56399;SDS011;42298;53.638;9.876;2023-06-14T07:30:19;6.85;;;3.10;;
56399;SDS011;42298;53.638;9.876;2023-06-14T07:32:45;6.28;;;3.00;;
56399;SDS011;42298;53.638;9.876;2023-06-14T07:35:10;6.38;;;2.83;;
56399;SDS011;42298;53.638;9.876;2023-06-14T07:37:35;9.50;;;3.10;;
56399;SDS011;42298;53.638;9.876;2023-06-14T07:40:01;4.85;;;2.88;;
56399;SDS011;42298;53.638;9.876;2023-06-14T07:42:31;6.38;;;2.92;;
56399;SDS011;42298;53.638;9.876;2023-06-14T07:44:57;6.72;;;2.88;;
56399;SDS011;42298;53.638;9.876;2023-06-14T07:47:23;8.05;;;2.70;;
56399;SDS011;42298;53.638;9.876;2023-06-14T07:49:48;10.05;;;3.13;;
56399;SDS011;42298;53.638;9.876;2023-06-14T07:52:13;5.88;;;2.90;;
56399;SDS011;42298;53.638;9.876;2023-06-14T07:54:39;7.35;;;2.83;;
56399;SDS011;42298;53.638;9.876;2023-06-14T07:57:06;7.03;;;2.90;;
56399;SDS011;42298;53.638;9.876;2023-06-14T07:59:31;5.15;;;3.00;;
56399;SDS011;42298;53.638;9.876;2023-06-14T08:01:56;5.38;;;3.03;;
56399;SDS011;42298;53.638;9.876;2023-06-14T08:04:22;4.57;;;2.50;;
56399;SDS011;42298;53.638;9.876;2023-06-14T08:06:48;4.60;;;2.67;;
56399;SDS011;42298;53.638;9.876;2023-06-14T08:09:14;7.00;;;2.60;;
56399;SDS011;42298;53.638;9.876;2023-06-14T08:11:39;5.90;;;2.70;;
56399;SDS011;42298;53.638;9.876;2023-06-14T08:14:05;6.05;;;2.88;;
56399;SDS011;42298;53.638;9.876;2023-06-14T08:16:30;5.13;;;3.03;;
56399;SDS011;42298;53.638;9.876;2023-06-14T08:18:56;5.90;;;2.88;;
56399;SDS011;42298;53.638;9.876;2023-06-14T08:21:21;11.10;;;3.05;;
56399;SDS011;42298;53.638;9.876;2023-06-14T08:23:47;6.38;;;2.47;;
56399;SDS011;42298;53.638;9.876;2023-06-14T08:26:12;6.53;;;2.63;;
56399;SDS011;42298;53.638;9.876;2023-06-14T08:28:38;6.25;;;2.58;;
56399;SDS011;42298;53.638;9.876;2023-06-14T08:31:03;6.72;;;2.63;;
56399;SDS011;42298;53.638;9.876;2023-06-14T08:33:28;5.43;;;2.70;;
56399;SDS011;42298;53.638;9.876;2023-06-14T08:35:54;5.95;;;2.50;;
56399;SDS011;42298;53.638;9.876;2023-06-14T08:38:19;5.90;;;2.72;;
56399;SDS011;42298;53.638;9.876;2023-06-14T08:40:48;5.80;;;2.67;;
56399;SDS011;42298;53.638;9.876;2023-06-14T08:43:17;5.05;;;2.60;;
56399;SDS011;42298;53.638;9.876;2023-06-14T08:45:42;7.05;;;2.70;;
56399;SDS011;42298;53.638;9.876;2023-06-14T08:48:08;6.05;;;3.00;;
56399;SDS011;42298;53.638;9.876;2023-06-14T08:50:34;9.85;;;2.70;;
56399;SDS011;42298;53.638;9.876;2023-06-14T08:53:01;7.78;;;2.70;;
56399;SDS011;42298;53.638;9.876;2023-06-14T08:55:28;6.05;;;2.95;;
56399;SDS011;42298;53.638;9.876;2023-06-14T08:57:55;8.23;;;2.90;;
56399;SDS011;42298;53.638;9.876;2023-06-14T09:00:24;9.10;;;3.22;;
56399;SDS011;42298;53.638;9.876;2023-06-14T09:02:51;8.90;;;2.90;;
56399;SDS011;42298;53.638;9.876;2023-06-14T09:05:29;6.70;;;2.88;;
56399;SDS011;42298;53.638;9.876;2023-06-14T09:07:54;5.78;;;2.70;;
56399;SDS011;42298;53.638;9.876;2023-06-14T09:10:22;7.60;;;2.83;;
56399;SDS011;42298;53.638;9.876;2023-06-14T09:12:48;7.40;;;2.92;;
56399;SDS011;42298;53.638;9.876;2023-06-14T09:15:15;5.05;;;2.75;;
56399;SDS011;42298;53.638;9.876;2023-06-14T09:17:40;6.75;;;2.80;;
56399;SDS011;42298;53.638;9.876;2023-06-14T09:20:06;5.63;;;3.13;;
56399;SDS011;42298;53.638;9.876;2023-06-14T09:22:42;7.40;;;2.90;;
56399;SDS011;42298;53.638;9.876;2023-06-14T09:25:07;6.93;;;3.20;;
56399;SDS011;42298;53.638;9.876;2023-06-14T09:27:33;7.00;;;2.90;;
56399;SDS011;42298;53.638;9.876;2023-06-14T09:29:58;5.65;;;2.90;;
56399;SDS011;42298;53.638;9.876;2023-06-14T09:32:24;9.18;;;3.30;;
56399;SDS011;42298;53.638;9.876;2023-06-14T09:34:50;8.63;;;2.90;;
56399;SDS011;42298;53.638;9.876;2023-06-14T09:37:31;9.98;;;3.17;;
56399;SDS011;42298;53.638;9.876;2023-06-14T09:39:57;4.97;;;2.67;;
56399;SDS011;42298;53.638;9.876;2023-06-14T09:42:23;7.45;;;3.00;;
56399;SDS011;42298;53.638;9.876;2023-06-14T09:44:54;8.18;;;3.10;;
56399;SDS011;42298;53.638;9.876;2023-06-14T09:47:20;10.07;;;3.30;;
56399;SDS011;42298;53.638;9.876;2023-06-14T09:49:46;7.28;;;3.38;;
56399;SDS011;42298;53.638;9.876;2023-06-14T09:52:18;10.90;;;3.55;;
56399;SDS011;42298;53.638;9.876;2023-06-14T09:54:46;5.90;;;2.53;;
56399;SDS011;42298;53.638;9.876;2023-06-14T09:57:22;7.30;;;3.03;;
56399;SDS011;42298;53.638;9.876;2023-06-14T09:59:48;7.53;;;3.20;;
56399;SDS011;42298;53.638;9.876;2023-06-14T10:05:18;7.65;;;3.05;;
56399;SDS011;42298;53.638;9.876;2023-06-14T10:07:52;6.97;;;3.13;;
56399;SDS011;42298;53.638;9.876;2023-06-14T10:10:20;7.78;;;3.15;;
56399;SDS011;42298;53.638;9.876;2023-06-14T10:12:46;6.45;;;3.22;;
56399;SDS011;42298;53.638;9.876;2023-06-14T10:15:15;5.20;;;2.88;;
56399;SDS011;42298;53.638;9.876;2023-06-14T10:17:50;6.68;;;3.17;;
56399;SDS011;42298;53.638;9.876;2023-06-14T10:20:24;9.18;;;3.30;;
56399;SDS011;42298;53.638;9.876;2023-06-14T10:22:58;7.75;;;3.30;;
56399;SDS011;42298;53.638;9.876;2023-06-14T10:25:29;9.02;;;2.97;;
56399;SDS011;42298;53.638;9.876;2023-06-14T10:28:14;6.93;;;2.80;;
56399;SDS011;42298;53.638;9.876;2023-06-14T10:33:32;10.13;;;3.60;;
56399;SDS011;42298;53.638;9.876;2023-06-14T10:36:09;12.13;;;3.15;;
56399;SDS011;42298;53.638;9.876;2023-06-14T10:38:40;8.38;;;3.20;;
56399;SDS011;42298;53.638;9.876;2023-06-14T10:41:07;8.80;;;3.20;;
56399;SDS011;42298;53.638;9.876;2023-06-14T10:43:33;6.65;;;2.92;;
56399;SDS011;42298;53.638;9.876;2023-06-14T10:46:17;9.07;;;3.15;;
56399;SDS011;42298;53.638;9.876;2023-06-14T10:48:46;7.93;;;3.20;;
56399;SDS011;42298;53.638;9.876;2023-06-14T10:51:20;9.20;;;3.50;;
56399;SDS011;42298;53.638;9.876;2023-06-14T10:53:49;7.75;;;3.65;;
56399;SDS011;42298;53.638;9.876;2023-06-14T10:56:33;8.57;;;3.20;;
56399;SDS011;42298;53.638;9.876;2023-06-14T10:58:58;8.18;;;3.25;;
56399;SDS011;42298;53.638;9.876;2023-06-14T11:07:20;7.10;;;3.13;;
56399;SDS011;42298;53.638;9.876;2023-06-14T11:13:03;5.88;;;2.80;;
56399;SDS011;42298;53.638;9.876;2023-06-14T11:15:32;9.60;;;3.00;;
56399;SDS011;42298;53.638;9.876;2023-06-14T11:18:00;7.60;;;3.20;;
56399;SDS011;42298;53.638;9.876;2023-06-14T11:20:27;6.68;;;3.25;;
56399;SDS011;42298;53.638;9.876;2023-06-14T11:22:54;7.25;;;2.90;;
56399;SDS011;42298;53.638;9.876;2023-06-14T11:25:21;8.73;;;3.05;;
56399;SDS011;42298;53.638;9.876;2023-06-14T11:27:48;7.13;;;3.28;;
56399;SDS011;42298;53.638;9.876;2023-06-14T11:30:14;8.18;;;3.63;;
56399;SDS011;42298;53.638;9.876;2023-06-14T11:32:40;7.07;;;3.28;;
56399;SDS011;42298;53.638;9.876;2023-06-14T11:35:06;8.38;;;3.38;;
56399;SDS011;42298;53.638;9.876;2023-06-14T11:37:32;8.40;;;3.35;;
56399;SDS011;42298;53.638;9.876;2023-06-14T11:39:58;6.15;;;3.30;;
56399;SDS011;42298;53.638;9.876;2023-06-14T11:42:24;7.75;;;3.00;;
56399;SDS011;42298;53.638;9.876;2023-06-14T11:44:52;6.50;;;3.22;;
56399;SDS011;42298;53.638;9.876;2023-06-14T11:47:24;6.20;;;3.17;;
56399;SDS011;42298;53.638;9.876;2023-06-14T11:49:58;7.28;;;3.53;;
56399;SDS011;42298;53.638;9.876;2023-06-14T11:52:26;7.30;;;2.92;;
56399;SDS011;42298;53.638;9.876;2023-06-14T11:54:52;5.57;;;3.13;;
56399;SDS011;42298;53.638;9.876;2023-06-14T11:57:18;5.57;;;2.85;;
56399;SDS011;42298;53.638;9.876;2023-06-14T11:59:44;10.35;;;3.22;;
56399;SDS011;42298;53.638;9.876;2023-06-14T12:02:13;6.25;;;3.33;;
56399;SDS011;42298;53.638;9.876;2023-06-14T12:04:48;6.85;;;2.95;;
56399;SDS011;42298;53.638;9.876;2023-06-14T12:07:14;6.10;;;3.03;;
56399;SDS011;42298;53.638;9.876;2023-06-14T12:09:42;7.70;;;3.45;;
56399;SDS011;42298;53.638;9.876;2023-06-14T12:12:31;8.73;;;2.97;;
56399;SDS011;42298;53.638;9.876;2023-06-14T12:15:04;9.52;;;3.22;;
56399;SDS011;42298;53.638;9.876;2023-06-14T12:17:34;8.95;;;3.00;;
56399;SDS011;42298;53.638;9.876;2023-06-14T12:20:10;7.63;;;2.92;;
56399;SDS011;42298;53.638;9.876;2023-06-14T12:25:28;4.50;;;2.80;;
56399;SDS011;42298;53.638;9.876;2023-06-14T12:27:58;7.72;;;3.13;;
56399;SDS011;42298;53.638;9.876;2023-06-14T12:30:25;10.75;;;3.35;;
56399;SDS011;42298;53.638;9.876;2023-06-14T12:32:50;9.82;;;3.70;;
56399;SDS011;42298;53.638;9.876;2023-06-14T12:35:16;6.63;;;2.83;;
56399;SDS011;42298;53.638;9.876;2023-06-14T12:37:43;8.48;;;2.85;;
56399;SDS011;42298;53.638;9.876;2023-06-14T12:40:09;8.45;;;3.45;;
56399;SDS011;42298;53.638;9.876;2023-06-14T12:42:36;11.52;;;2.80;;
56399;SDS011;42298;53.638;9.876;2023-06-14T12:45:01;9.38;;;3.03;;
56399;SDS011;42298;53.638;9.876;2023-06-14T12:47:29;6.45;;;2.83;;
56399;SDS011;42298;53.638;9.876;2023-06-14T12:49:54;7.25;;;2.97;;
56399;SDS011;42298;53.638;9.876;2023-06-14T12:52:20;11.30;;;3.13;;
56399;SDS011;42298;53.638;9.876;2023-06-14T12:54:45;7.28;;;3.17;;
56399;SDS011;42298;53.638;9.876;2023-06-14T12:57:10;5.68;;;3.10;;
56399;SDS011;42298;53.638;9.876;2023-06-14T12:59:36;6.50;;;2.85;;
56399;SDS011;42298;53.638;9.876;2023-06-14T13:07:05;9.40;;;2.95;;
56399;SDS011;42298;53.638;9.876;2023-06-14T13:09:31;8.77;;;3.40;;
56399;SDS011;42298;53.638;9.876;2023-06-14T13:11:57;9.57;;;3.30;;
56399;SDS011;42298;53.638;9.876;2023-06-14T13:14:22;7.40;;;3.10;;
56399;SDS011;42298;53.638;9.876;2023-06-14T13:16:47;7.78;;;3.40;;
56399;SDS011;42298;53.638;9.876;2023-06-14T13:19:13;5.28;;;2.90;;
56399;SDS011;42298;53.638;9.876;2023-06-14T13:21:38;7.80;;;3.58;;
56399;SDS011;42298;53.638;9.876;2023-06-14T13:24:03;6.90;;;3.00;;
56399;SDS011;42298;53.638;9.876;2023-06-14T13:26:29;7.03;;;3.20;;
56399;SDS011;42298;53.638;9.876;2023-06-14T13:28:54;7.30;;;3.17;;
56399;SDS011;42298;53.638;9.876;2023-06-14T13:31:20;9.13;;;3.55;;
56399;SDS011;42298;53.638;9.876;2023-06-14T13:33:45;5.65;;;2.83;;
56399;SDS011;42298;53.638;9.876;2023-06-14T13:36:10;8.50;;;3.10;;
56399;SDS011;42298;53.638;9.876;2023-06-14T13:38:36;7.95;;;3.30;;
56399;SDS011;42298;53.638;9.876;2023-06-14T13:41:01;6.50;;;3.17;;
56399;SDS011;42298;53.638;9.876;2023-06-14T13:43:26;10.73;;;2.78;;
56399;SDS011;42298;53.638;9.876;2023-06-14T13:45:52;8.60;;;3.13;;
56399;SDS011;42298;53.638;9.876;2023-06-14T13:48:17;7.60;;;3.13;;
56399;SDS011;42298;53.638;9.876;2023-06-14T13:50:43;6.07;;;2.90;;
56399;SDS011;42298;53.638;9.876;2023-06-14T13:53:10;7.35;;;3.08;;
56399;SDS011;42298;53.638;9.876;2023-06-14T13:55:36;10.18;;;3.22;;
56399;SDS011;42298;53.638;9.876;2023-06-14T13:58:01;13.55;;;3.40;;
56399;SDS011;42298;53.638;9.876;2023-06-14T14:00:26;9.57;;;2.97;;
56399;SDS011;42298;53.638;9.876;2023-06-14T14:02:52;5.18;;;2.80;;
56399;SDS011;42298;53.638;9.876;2023-06-14T14:05:17;6.50;;;2.70;;
56399;SDS011;42298;53.638;9.876;2023-06-14T14:07:44;7.05;;;2.88;;
56399;SDS011;42298;53.638;9.876;2023-06-14T14:10:11;5.25;;;2.45;;
56399;SDS011;42298;53.638;9.876;2023-06-14T14:12:39;5.32;;;2.70;;
56399;SDS011;42298;53.638;9.876;2023-06-14T14:15:05;6.32;;;2.78;;
56399;SDS011;42298;53.638;9.876;2023-06-14T14:17:36;7.53;;;3.03;;
56399;SDS011;42298;53.638;9.876;2023-06-14T14:20:02;9.18;;;2.45;;
56399;SDS011;42298;53.638;9.876;2023-06-14T14:22:28;3.78;;;2.45;;
56399;SDS011;42298;53.638;9.876;2023-06-14T14:24:53;4.93;;;2.75;;
56399;SDS011;42298;53.638;9.876;2023-06-14T14:27:18;7.50;;;2.65;;
56399;SDS011;42298;53.638;9.876;2023-06-14T14:29:43;9.18;;;2.95;;
56399;SDS011;42298;53.638;9.876;2023-06-14T14:32:09;7.43;;;3.15;;
56399;SDS011;42298;53.638;9.876;2023-06-14T14:34:38;10.38;;;3.45;;
56399;SDS011;42298;53.638;9.876;2023-06-14T14:37:03;5.10;;;2.78;;
56399;SDS011;42298;53.638;9.876;2023-06-14T14:39:29;5.30;;;2.55;;
56399;SDS011;42298;53.638;9.876;2023-06-14T14:41:55;4.88;;;2.70;;
56399;SDS011;42298;53.638;9.876;2023-06-14T14:44:21;8.50;;;2.83;;
56399;SDS011;42298;53.638;9.876;2023-06-14T14:46:46;8.50;;;3.20;;
56399;SDS011;42298;53.638;9.876;2023-06-14T14:49:11;8.52;;;2.83;;
56399;SDS011;42298;53.638;9.876;2023-06-14T14:51:37;13.63;;;2.90;;
56399;SDS011;42298;53.638;9.876;2023-06-14T14:54:03;8.50;;;2.95;;
56399;SDS011;42298;53.638;9.876;2023-06-14T14:56:29;6.97;;;2.70;;
56399;SDS011;42298;53.638;9.876;2023-06-14T14:58:54;6.82;;;2.58;;
56399;SDS011;42298;53.638;9.876;2023-06-14T15:01:19;4.70;;;2.58;;
56399;SDS011;42298;53.638;9.876;2023-06-14T15:03:45;6.95;;;2.47;;
56399;SDS011;42298;53.638;9.876;2023-06-14T15:06:10;5.18;;;2.75;;
56399;SDS011;42298;53.638;9.876;2023-06-14T15:08:36;8.23;;;2.85;;
56399;SDS011;42298;53.638;9.876;2023-06-14T15:11:01;8.65;;;3.08;;